Time;durP1;ratioP1;P1;durP2;ratioP2;P2;SDS_P1;SDS_P2;PMS_P1;PMS_P2;Temp;Humidity;BMP_temperature;BMP_pressure;BME280_temperature;BME280_humidity;BME280_pressure;Samples;Min_cycle;Max_cycle;Signal;HPM_P1;HPM_P2
2022/03/01 00:01:54;;;;;;;9.93;5.15;;;11.40;80.10;;;;;;5056995;28;20032;-74
2022/03/01 00:04:21;;;;;;;15.00;5.88;;;11.30;80.10;;;;;;5057184;28;20033;-75
2022/03/01 00:06:46;;;;;;;13.93;6.05;;;11.40;80.50;;;;;;5042398;28;20033;-75
2022/03/01 00:09:12;;;;;;;9.90;5.07;;;11.30;80.30;;;;;;5035493;28;20021;-75
2022/03/01 00:11:38;;;;;;;15.80;6.82;;;11.30;80.70;;;;;;5035568;28;20029;-75
2022/03/01 00:14:05;;;;;;;12.57;6.45;;;11.30;80.90;;;;;;5035654;28;20053;-74
2022/03/01 00:16:31;;;;;;;11.93;5.63;;;11.30;80.80;;;;;;5037087;28;20056;-74
2022/03/01 00:18:58;;;;;;;10.43;6.35;;;11.30;80.60;;;;;;5051803;28;20025;-74
2022/03/01 00:21:24;;;;;;;12.30;6.68;;;11.40;80.50;;;;;;5056196;28;20036;-75
2022/03/01 00:23:50;;;;;;;10.65;6.07;;;11.40;80.60;;;;;;5049530;28;20082;-74
2022/03/01 00:26:16;;;;;;;12.77;6.47;;;11.40;80.40;;;;;;5056339;28;20052;-75
2022/03/01 00:28:42;;;;;;;14.25;6.70;;;11.40;80.60;;;;;;5049760;28;20021;-74
2022/03/01 00:31:08;;;;;;;15.50;7.25;;;11.40;80.90;;;;;;5040645;28;20108;-74
2022/03/01 00:33:34;;;;;;;13.68;6.68;;;11.40;80.80;;;;;;5055304;28;20525;-74
2022/03/01 00:36:00;;;;;;;12.57;5.88;;;11.40;80.70;;;;;;5037377;28;20049;-74
2022/03/01 00:38:26;;;;;;;11.23;6.53;;;11.40;81.00;;;;;;5035356;28;20562;-74
2022/03/01 00:40:52;;;;;;;15.18;7.75;;;11.40;81.10;;;;;;5036455;28;20029;-74
2022/03/01 00:43:18;;;;;;;15.00;7.18;;;11.40;81.10;;;;;;5036240;28;20059;-74
2022/03/01 00:45:44;;;;;;;20.42;8.38;;;11.40;81.50;;;;;;5034912;28;20025;-75
2022/03/01 00:48:10;;;;;;;13.40;6.72;;;11.40;81.30;;;;;;5036331;28;20056;-74
2022/03/01 00:50:36;;;;;;;14.93;7.28;;;11.30;81.70;;;;;;5036448;28;20095;-74
2022/03/01 00:53:01;;;;;;;16.13;7.20;;;11.30;81.70;;;;;;5036318;28;20025;-75
2022/03/01 00:55:27;;;;;;;13.75;7.30;;;11.40;81.40;;;;;;5034709;28;20028;-74
2022/03/01 00:57:53;;;;;;;13.65;7.93;;;11.50;81.20;;;;;;5036326;28;20037;-74
2022/03/01 01:00:18;;;;;;;18.23;8.30;;;11.50;81.10;;;;;;5036228;28;20030;-74
2022/03/01 01:02:44;;;;;;;15.60;7.85;;;11.50;81.00;;;;;;5035892;28;20076;-74
2022/03/01 01:05:10;;;;;;;12.02;7.97;;;11.60;81.10;;;;;;5034776;28;20025;-74
2022/03/01 01:07:36;;;;;;;22.83;8.68;;;11.50;81.20;;;;;;5036168;28;20033;-75
2022/03/01 01:10:04;;;;;;;15.40;8.25;;;11.40;81.60;;;;;;5034386;28;20116;-74
2022/03/01 01:12:30;;;;;;;17.80;8.20;;;11.50;81.50;;;;;;5034629;28;20091;-74
2022/03/01 01:14:56;;;;;;;14.35;8.73;;;11.40;81.80;;;;;;5035865;28;20156;-74
2022/03/01 01:17:21;;;;;;;12.85;7.88;;;11.40;81.90;;;;;;5035741;28;20033;-75
2022/03/01 01:19:47;;;;;;;13.98;8.77;;;11.40;82.10;;;;;;5064722;28;20031;-75
2022/03/01 01:24:57;;;;;;;14.32;8.38;;;11.40;82.10;;;;;;5035849;28;20024;-75
2022/03/01 01:27:23;;;;;;;17.02;8.15;;;11.40;82.00;;;;;;5036138;28;20372;-74
2022/03/01 01:29:49;;;;;;;18.38;8.82;;;11.50;82.00;;;;;;5035741;28;20066;-75
2022/03/01 01:32:15;;;;;;;15.27;8.40;;;11.50;82.00;;;;;;5035635;28;20098;-74
2022/03/01 01:34:40;;;;;;;15.57;9.02;;;11.50;82.00;;;;;;5034285;28;20035;-74
2022/03/01 01:37:06;;;;;;;15.00;8.60;;;11.60;81.80;;;;;;5035420;28;20021;-74
2022/03/01 01:39:32;;;;;;;18.40;8.55;;;11.70;81.40;;;;;;5035369;28;20029;-75
2022/03/01 01:41:58;;;;;;;14.73;8.63;;;11.70;81.10;;;;;;5035423;28;20029;-74
2022/03/01 01:44:23;;;;;;;16.90;9.18;;;11.80;81.00;;;;;;5034166;28;20040;-74
2022/03/01 01:46:49;;;;;;;16.42;8.95;;;11.80;80.90;;;;;;5034409;28;20717;-74
2022/03/01 01:49:15;;;;;;;13.90;7.88;;;11.80;80.80;;;;;;5035455;28;20526;-74
2022/03/01 01:51:41;;;;;;;15.75;8.90;;;11.80;80.60;;;;;;5035253;28;20610;-74
2022/03/01 01:54:06;;;;;;;15.85;8.40;;;11.80;80.60;;;;;;5034024;28;20032;-74
2022/03/01 01:56:32;;;;;;;12.35;8.30;;;11.80;80.70;;;;;;5033792;28;20029;-74
2022/03/01 01:58:58;;;;;;;16.20;8.63;;;11.70;80.90;;;;;;5033919;28;20033;-74
2022/03/01 02:01:24;;;;;;;16.80;8.75;;;11.70;80.80;;;;;;5035078;28;20033;-74
2022/03/01 02:03:50;;;;;;;25.90;9.30;;;11.60;81.40;;;;;;5034079;28;20037;-74
2022/03/01 02:06:15;;;;;;;14.60;8.40;;;11.40;82.20;;;;;;5054607;28;20025;-74
2022/03/01 02:08:41;;;;;;;14.57;8.65;;;11.30;82.10;;;;;;5055140;28;20036;-75
2022/03/01 02:11:08;;;;;;;19.02;9.73;;;11.30;82.30;;;;;;5039100;28;20494;-74
2022/03/01 02:13:34;;;;;;;20.75;9.20;;;11.40;82.30;;;;;;5034785;28;20033;-75
2022/03/01 02:16:00;;;;;;;12.68;7.68;;;11.30;82.20;;;;;;5034711;28;20049;-74
2022/03/01 02:18:25;;;;;;;17.23;8.68;;;11.20;82.70;;;;;;5042640;28;20066;-74
2022/03/01 02:20:51;;;;;;;13.88;7.63;;;11.20;83.10;;;;;;5073491;28;20025;-74
2022/03/01 02:23:17;;;;;;;14.68;8.27;;;11.10;83.50;;;;;;5066476;28;20073;-74
2022/03/01 02:25:43;;;;;;;15.07;8.02;;;11.10;83.20;;;;;;5039395;28;20037;-74
2022/03/01 02:28:08;;;;;;;15.73;8.40;;;11.20;82.70;;;;;;5033668;28;20033;-75
2022/03/01 02:30:34;;;;;;;14.93;7.80;;;11.20;82.70;;;;;;5034865;28;20023;-74
2022/03/01 02:33:00;;;;;;;14.27;8.35;;;11.20;82.90;;;;;;5037405;28;20033;-74
2022/03/01 02:35:26;;;;;;;13.52;7.88;;;11.30;82.50;;;;;;5038944;28;20038;-74
2022/03/01 02:37:52;;;;;;;12.65;7.75;;;11.30;82.30;;;;;;5038851;28;20032;-74
2022/03/01 02:40:19;;;;;;;18.30;9.27;;;11.20;82.40;;;;;;5038756;28;20033;-74
2022/03/01 02:42:47;;;;;;;18.38;9.32;;;11.20;82.80;;;;;;5037429;28;20080;-75
2022/03/01 02:45:17;;;;;;;17.30;9.48;;;11.20;82.80;;;;;;5038897;28;20029;-74
2022/03/01 02:47:43;;;;;;;20.05;10.65;;;11.20;82.80;;;;;;5037856;28;20029;-75
2022/03/01 02:50:10;;;;;;;16.75;9.63;;;11.10;82.70;;;;;;5037116;28;20499;-74
2022/03/01 02:52:37;;;;;;;16.30;9.32;;;11.10;82.80;;;;;;5037376;28;20021;-74
2022/03/01 02:55:04;;;;;;;15.30;9.45;;;11.20;82.80;;;;;;5038519;28;20022;-75
2022/03/01 02:57:30;;;;;;;17.02;8.48;;;11.20;82.80;;;;;;5049898;28;20033;-74
2022/03/01 02:59:56;;;;;;;14.38;8.75;;;11.20;82.80;;;;;;5057241;28;20487;-74
2022/03/01 03:02:22;;;;;;;14.40;8.50;;;11.20;82.50;;;;;;5053956;28;20025;-74
2022/03/01 03:04:48;;;;;;;14.73;8.73;;;11.20;82.30;;;;;;5038427;28;20051;-74
2022/03/01 03:07:15;;;;;;;15.50;8.00;;;11.20;82.10;;;;;;5038193;28;20107;-74
2022/03/01 03:09:41;;;;;;;19.63;8.88;;;11.20;82.20;;;;;;5036964;28;20545;-74
2022/03/01 03:12:10;;;;;;;17.63;9.35;;;11.20;82.00;;;;;;5036748;28;20028;-75
2022/03/01 03:14:36;;;;;;;14.88;8.15;;;11.30;81.80;;;;;;5038138;28;20510;-74
2022/03/01 03:17:03;;;;;;;14.43;8.98;;;11.20;82.10;;;;;;5038143;28;20030;-74
2022/03/01 03:19:28;;;;;;;15.43;9.10;;;11.20;82.00;;;;;;5062822;28;20032;-74
2022/03/01 03:21:54;;;;;;;17.75;7.78;;;11.20;82.00;;;;;;5061048;28;20036;-74
2022/03/01 03:24:20;;;;;;;19.15;8.55;;;11.20;82.00;;;;;;5055487;28;20056;-74
2022/03/01 03:26:45;;;;;;;15.02;9.57;;;11.10;82.30;;;;;;5057479;28;20036;-74
2022/03/01 03:29:11;;;;;;;15.70;8.30;;;11.10;82.30;;;;;;5052020;28;20032;-74
2022/03/01 03:31:38;;;;;;;14.73;8.70;;;11.20;82.40;;;;;;5037939;28;20545;-74
2022/03/01 03:34:07;;;;;;;16.75;8.85;;;11.20;82.30;;;;;;5039403;28;20029;-74
2022/03/01 03:36:35;;;;;;;14.30;7.82;;;11.10;82.60;;;;;;5057779;28;20075;-74
2022/03/01 03:39:02;;;;;;;17.60;8.95;;;11.10;82.80;;;;;;5056325;28;20129;-75
2022/03/01 03:41:27;;;;;;;18.67;9.10;;;11.10;82.70;;;;;;5048815;28;20026;-74
2022/03/01 03:43:53;;;;;;;18.17;9.00;;;11.20;82.60;;;;;;5037160;28;20055;-75
2022/03/01 03:46:20;;;;;;;18.70;9.43;;;11.20;82.40;;;;;;5038176;28;20034;-74
2022/03/01 03:48:47;;;;;;;17.58;9.77;;;11.30;82.30;;;;;;5056233;28;20017;-75
2022/03/01 03:51:12;;;;;;;18.80;8.80;;;11.30;82.10;;;;;;5057500;28;20053;-73
2022/03/01 03:53:38;;;;;;;21.85;9.35;;;11.30;82.00;;;;;;5041587;28;20029;-74
2022/03/01 03:56:04;;;;;;;21.80;10.60;;;11.40;81.80;;;;;;5036278;28;20025;-75
2022/03/01 03:58:30;;;;;;;14.65;9.07;;;11.40;81.90;;;;;;5035971;28;20021;-74
2022/03/01 04:00:56;;;;;;;15.60;8.65;;;11.40;81.90;;;;;;5037177;28;20041;-74
2022/03/01 04:03:23;;;;;;;17.67;9.23;;;11.30;82.00;;;;;;5036012;28;20514;-74
2022/03/01 04:05:50;;;;;;;17.95;8.70;;;11.40;82.00;;;;;;5035638;28;20116;-74
2022/03/01 04:08:16;;;;;;;17.65;9.70;;;11.30;82.30;;;;;;5037434;28;20482;-74
2022/03/01 04:10:42;;;;;;;11.82;7.93;;;11.30;82.00;;;;;;5035746;28;20025;-74
2022/03/01 04:13:08;;;;;;;18.98;9.02;;;11.40;81.80;;;;;;5035778;28;20484;-74
2022/03/01 04:15:34;;;;;;;17.05;8.35;;;11.50;81.50;;;;;;5041866;28;20080;-74
2022/03/01 04:18:00;;;;;;;20.17;8.48;;;11.50;81.60;;;;;;5054951;28;20086;-75
2022/03/01 04:20:25;;;;;;;14.00;8.85;;;11.50;81.20;;;;;;5045012;28;20044;-74
2022/03/01 04:22:51;;;;;;;20.10;8.30;;;11.60;81.10;;;;;;5035568;28;20033;-75
2022/03/01 04:25:17;;;;;;;16.30;8.90;;;11.60;80.80;;;;;;5036870;28;20048;-74
2022/03/01 04:27:43;;;;;;;15.55;9.07;;;11.60;80.80;;;;;;5035505;28;20034;-74
2022/03/01 04:30:11;;;;;;;17.30;9.73;;;11.60;80.90;;;;;;5047418;28;20415;-74
2022/03/01 04:32:37;;;;;;;13.77;7.75;;;11.50;80.70;;;;;;5036906;28;20073;-74
2022/03/01 04:35:03;;;;;;;19.17;9.55;;;11.50;81.00;;;;;;5037064;28;20044;-74
2022/03/01 04:37:29;;;;;;;19.70;10.05;;;11.50;81.00;;;;;;5051565;28;20029;-74
2022/03/01 04:39:55;;;;;;;20.67;8.63;;;11.40;81.20;;;;;;5036519;28;20120;-74
2022/03/01 04:42:21;;;;;;;16.60;9.02;;;11.40;81.30;;;;;;5035259;28;20554;-74
2022/03/01 04:44:47;;;;;;;15.25;8.80;;;11.40;81.30;;;;;;5036421;28;20495;-75
2022/03/01 04:47:14;;;;;;;16.13;9.10;;;11.30;81.70;;;;;;5036567;28;20024;-74
2022/03/01 04:49:40;;;;;;;18.17;9.93;;;11.30;81.70;;;;;;5044711;28;20021;-75
2022/03/01 04:52:06;;;;;;;18.55;9.68;;;11.30;81.70;;;;;;5056350;28;20028;-74
2022/03/01 04:54:32;;;;;;;20.77;9.88;;;11.30;81.90;;;;;;5053936;28;20025;-75
2022/03/01 04:56:58;;;;;;;15.88;9.60;;;11.20;81.60;;;;;;5044439;28;20586;-74
2022/03/01 04:59:24;;;;;;;16.63;9.68;;;11.30;82.00;;;;;;5036087;28;20029;-74
2022/03/01 05:01:50;;;;;;;16.65;9.32;;;11.30;81.80;;;;;;5036461;28;20056;-75
2022/03/01 05:04:15;;;;;;;20.60;9.73;;;11.30;81.50;;;;;;5036230;28;20036;-74
2022/03/01 05:06:41;;;;;;;17.30;8.80;;;11.30;81.60;;;;;;5036205;28;20116;-74
2022/03/01 05:09:07;;;;;;;19.88;9.65;;;11.30;81.70;;;;;;5035993;28;20030;-74
2022/03/01 05:11:33;;;;;;;17.80;10.27;;;11.30;82.00;;;;;;5036105;28;20100;-74
2022/03/01 05:13:59;;;;;;;17.48;9.98;;;11.20;82.00;;;;;;5034225;28;20044;-74
2022/03/01 05:16:24;;;;;;;21.63;10.52;;;11.20;82.40;;;;;;5035814;28;20025;-74
2022/03/01 05:18:50;;;;;;;20.08;10.40;;;11.20;82.40;;;;;;5048955;28;20029;-74
2022/03/01 05:21:16;;;;;;;16.70;9.88;;;11.20;82.50;;;;;;5075998;28;20029;-74
2022/03/01 05:23:41;;;;;;;16.25;10.07;;;11.20;82.60;;;;;;5062373;28;20028;-74
2022/03/01 05:26:07;;;;;;;22.67;10.50;;;11.20;82.60;;;;;;5054456;28;20406;-75
2022/03/01 05:28:33;;;;;;;19.08;10.27;;;11.10;82.60;;;;;;5055557;28;20521;-74
2022/03/01 05:30:59;;;;;;;20.75;11.30;;;11.20;82.60;;;;;;5044481;28;20027;-74
2022/03/01 05:33:24;;;;;;;19.90;10.10;;;11.20;82.70;;;;;;5035296;28;20558;-74
2022/03/01 05:35:50;;;;;;;19.17;11.13;;;11.20;82.80;;;;;;5035790;28;20323;-75
2022/03/01 05:38:16;;;;;;;16.27;10.63;;;11.20;82.60;;;;;;5053670;28;20514;-74
2022/03/01 05:40:42;;;;;;;23.90;10.77;;;11.20;82.40;;;;;;5046817;28;20029;-75
2022/03/01 05:43:08;;;;;;;22.40;10.40;;;11.20;82.40;;;;;;5034203;28;20112;-75
2022/03/01 18:16:34;;;;;;;23.25;13.63;;;12.80;80.00;;;;;;5095584;27;20386;-75
2022/03/01 18:19:00;;;;;;;21.38;13.23;;;12.90;80.00;;;;;;5083750;28;20028;-72
2022/03/01 18:21:26;;;;;;;21.55;13.05;;;13.20;79.10;;;;;;5079867;28;20017;-72
2022/03/01 18:23:52;;;;;;;19.83;13.00;;;13.50;78.10;;;;;;5083254;28;20025;-73
2022/03/01 18:26:19;;;;;;;29.52;17.45;;;13.70;77.00;;;;;;5076503;28;20031;-72
2022/03/01 18:28:45;;;;;;;40.13;21.88;;;13.90;76.20;;;;;;5074925;28;20037;-72
2022/03/01 18:31:11;;;;;;;28.08;17.90;;;14.10;75.70;;;;;;5060310;28;20144;-73
2022/03/01 18:33:38;;;;;;;19.83;13.95;;;14.20;75.40;;;;;;5077589;28;20040;-73
2022/03/01 18:36:05;;;;;;;19.38;13.63;;;14.30;75.10;;;;;;5076653;28;20043;-74
2022/03/01 18:38:33;;;;;;;21.80;13.48;;;14.30;74.70;;;;;;5069553;28;20055;-78
2022/03/01 18:40:59;;;;;;;16.73;11.52;;;14.30;74.90;;;;;;5081898;28;20494;-77
2022/03/01 18:43:26;;;;;;;17.92;11.90;;;14.30;74.90;;;;;;5086605;28;20055;-77
2022/03/01 18:45:52;;;;;;;16.55;11.38;;;14.30;74.90;;;;;;5077102;28;20025;-78
2022/03/01 18:48:18;;;;;;;19.40;12.50;;;14.30;75.00;;;;;;5079570;28;20177;-82
2022/03/01 18:50:45;;;;;;;18.33;11.20;;;14.40;74.90;;;;;;5068998;28;20111;-80
2022/03/01 18:53:13;;;;;;;21.90;13.70;;;14.40;74.90;;;;;;5085447;28;20060;-77
2022/03/01 18:55:40;;;;;;;20.38;12.55;;;14.40;74.90;;;;;;5081022;28;20371;-76
2022/03/01 18:58:07;;;;;;;22.70;12.85;;;14.40;74.80;;;;;;5085522;28;20565;-77
2022/03/01 19:00:33;;;;;;;18.70;12.13;;;14.40;74.80;;;;;;5054980;28;20403;-79
2022/03/01 19:02:59;;;;;;;20.90;14.13;;;14.40;75.00;;;;;;5083067;28;20691;-79
2022/03/01 19:05:25;;;;;;;24.67;15.95;;;14.50;75.00;;;;;;5080129;28;20032;-77
2022/03/01 19:07:51;;;;;;;25.02;15.77;;;14.40;74.90;;;;;;5083535;28;20107;-79
2022/03/01 19:10:18;;;;;;;24.27;16.05;;;14.40;75.10;;;;;;5067317;28;20079;-76
2022/03/01 19:12:45;;;;;;;23.23;15.48;;;14.40;75.30;;;;;;5077671;28;21087;-74
2022/03/01 19:15:13;;;;;;;22.00;15.95;;;14.40;75.40;;;;;;5072450;28;20049;-77
2022/03/01 19:17:39;;;;;;;26.15;15.43;;;14.30;75.40;;;;;;5074520;28;20028;-76
2022/03/01 19:20:07;;;;;;;20.38;14.95;;;14.40;75.40;;;;;;5062074;28;20390;-77
2022/03/01 19:22:33;;;;;;;19.80;15.00;;;14.40;75.50;;;;;;5058075;28;20025;-74
2022/03/01 19:24:59;;;;;;;22.30;14.15;;;14.40;75.50;;;;;;5074481;28;20078;-80
2022/03/01 19:27:25;;;;;;;19.52;13.77;;;14.30;75.60;;;;;;5065199;28;20033;-76
2022/03/01 19:29:50;;;;;;;24.73;16.08;;;14.30;75.50;;;;;;5060650;28;20029;-76
2022/03/01 19:32:16;;;;;;;23.92;14.93;;;14.30;75.70;;;;;;5062378;28;20104;-75
2022/03/01 19:34:43;;;;;;;29.92;16.98;;;14.20;75.70;;;;;;5060434;28;20090;-77
2022/03/01 19:37:09;;;;;;;23.73;15.50;;;14.20;76.10;;;;;;5062020;28;20022;-76
2022/03/01 19:39:36;;;;;;;26.60;16.30;;;14.20;76.00;;;;;;5061610;28;20025;-73
2022/03/01 19:42:07;;;;;;;22.67;16.00;;;14.20;76.10;;;;;;5061978;28;20024;-77
2022/03/01 19:44:34;;;;;;;23.65;15.65;;;14.20;76.20;;;;;;5062216;28;20024;-78
2022/03/01 19:47:00;;;;;;;21.67;15.07;;;14.20;76.30;;;;;;5051520;28;20031;-75
2022/03/01 19:49:25;;;;;;;21.83;14.30;;;14.20;76.20;;;;;;5064915;28;20097;-74
2022/03/01 19:51:51;;;;;;;21.92;14.70;;;14.20;76.20;;;;;;5042650;28;20048;-74
2022/03/01 19:54:17;;;;;;;22.08;15.30;;;14.10;76.30;;;;;;5067869;28;20521;-74
2022/03/01 19:56:43;;;;;;;21.73;16.55;;;14.10;76.40;;;;;;5059936;28;20028;-73
2022/03/01 19:59:08;;;;;;;33.22;19.88;;;14.10;76.40;;;;;;5058266;28;20068;-75
2022/03/01 20:01:35;;;;;;;27.95;18.52;;;14.00;76.50;;;;;;5058422;28;20071;-74
2022/03/01 20:04:01;;;;;;;26.52;16.65;;;14.00;76.60;;;;;;5062162;28;20021;-78
2022/03/01 20:06:28;;;;;;;21.58;16.27;;;14.00;76.60;;;;;;5064818;28;20029;-74
2022/03/01 20:08:55;;;;;;;23.02;17.23;;;14.00;76.50;;;;;;5043043;28;20025;-74
2022/03/01 20:11:21;;;;;;;19.55;13.57;;;14.10;76.40;;;;;;5059279;28;20020;-74
2022/03/01 20:13:48;;;;;;;23.67;14.98;;;14.10;76.30;;;;;;5059960;28;20638;-74
2022/03/01 20:16:15;;;;;;;26.23;15.75;;;14.00;76.20;;;;;;5061226;28;20044;-74
2022/03/01 20:18:41;;;;;;;25.58;14.98;;;14.00;76.40;;;;;;5067195;28;20032;-78
2022/03/01 20:21:07;;;;;;;22.45;15.20;;;14.00;76.40;;;;;;5073877;28;20487;-77
2022/03/01 20:23:34;;;;;;;24.67;15.70;;;13.90;76.70;;;;;;5082788;28;20059;-74
2022/03/01 20:26:01;;;;;;;25.08;15.73;;;13.90;76.70;;;;;;5080862;28;20107;-74
2022/03/01 20:28:28;;;;;;;22.95;15.15;;;13.90;76.70;;;;;;5085666;28;20024;-77
2022/03/01 20:30:54;;;;;;;21.67;15.40;;;13.80;76.80;;;;;;5085813;28;20026;-74
2022/03/01 20:33:19;;;;;;;26.08;15.38;;;13.90;76.80;;;;;;5086603;28;20482;-74
2022/03/01 20:35:45;;;;;;;23.27;15.93;;;13.90;76.60;;;;;;5083616;28;20032;-75
2022/03/01 20:38:11;;;;;;;29.55;17.65;;;13.90;76.50;;;;;;5063102;28;20029;-75
2022/03/01 20:40:37;;;;;;;23.80;15.70;;;13.90;76.50;;;;;;5086035;28;20054;-76
2022/03/01 20:43:04;;;;;;;21.55;15.15;;;13.80;76.70;;;;;;5067933;28;20036;-75
2022/03/01 20:45:30;;;;;;;20.25;15.25;;;13.80;76.80;;;;;;5084611;28;20050;-75
2022/03/01 20:47:57;;;;;;;24.45;15.82;;;13.80;76.70;;;;;;5080477;28;20237;-76
2022/03/01 20:50:27;;;;;;;24.48;15.27;;;13.80;76.70;;;;;;5084681;28;20021;-76
2022/03/01 20:52:53;;;;;;;;;;;13.80;76.70;;;;;;5078901;28;20430;-76
2022/03/01 20:55:20;;;;;;;27.85;15.55;;;13.80;76.70;;;;;;5068615;28;19916;-75
2022/03/01 20:57:47;;;;;;;26.00;17.17;;;13.80;76.80;;;;;;5058580;28;20517;-75
2022/03/01 21:00:16;;;;;;;20.67;16.73;;;13.80;76.80;;;;;;5086288;28;20054;-76
2022/03/01 21:02:43;;;;;;;26.08;16.30;;;13.80;76.80;;;;;;5075993;28;20050;-76
2022/03/01 21:05:09;;;;;;;23.92;16.02;;;13.80;76.90;;;;;;5084764;28;20042;-75
2022/03/01 21:07:36;;;;;;;24.90;16.17;;;13.80;76.80;;;;;;5081486;28;20043;-74
2022/03/01 21:10:04;;;;;;;29.08;18.02;;;13.80;76.90;;;;;;5071996;28;20040;-75
2022/03/01 21:12:29;;;;;;;23.73;16.55;;;13.80;76.90;;;;;;5068988;28;20025;-75
2022/03/01 21:14:55;;;;;;;24.27;16.60;;;13.80;76.90;;;;;;5047014;28;20547;-75
2022/03/01 21:17:21;;;;;;;23.67;17.48;;;13.70;77.20;;;;;;5046544;28;20386;-77
2022/03/01 21:19:48;;;;;;;28.67;19.63;;;13.80;77.00;;;;;;5072652;28;20089;-76
2022/03/01 21:22:14;;;;;;;30.88;18.05;;;13.80;77.20;;;;;;5065471;28;20112;-77
2022/03/01 21:24:41;;;;;;;38.88;22.67;;;13.70;77.10;;;;;;5052971;28;20024;-77
2022/03/01 21:27:07;;;;;;;31.13;19.92;;;13.80;77.20;;;;;;5071323;28;20032;-77
2022/03/01 21:29:34;;;;;;;32.75;22.50;;;13.80;77.10;;;;;;5053320;28;20025;-77
2022/03/01 21:32:01;;;;;;;30.30;19.83;;;13.80;76.90;;;;;;5053383;28;20029;-77
2022/03/01 21:34:27;;;;;;;27.65;17.42;;;13.80;77.00;;;;;;5041885;28;20025;-76
2022/03/01 21:36:53;;;;;;;27.85;18.05;;;13.80;77.00;;;;;;5057114;28;20032;-75
2022/03/01 21:39:19;;;;;;;29.27;19.60;;;13.80;77.00;;;;;;5055649;28;20077;-74
2022/03/01 21:41:45;;;;;;;32.00;19.25;;;13.80;77.00;;;;;;5060897;28;20030;-75
2022/03/01 21:44:11;;;;;;;27.27;17.75;;;13.80;76.80;;;;;;5058883;28;20028;-75
2022/03/01 21:46:37;;;;;;;29.80;17.13;;;13.80;76.70;;;;;;5057687;28;20048;-75
2022/03/01 21:49:04;;;;;;;26.02;17.50;;;13.80;76.70;;;;;;5058117;28;20020;-75
2022/03/01 21:51:30;;;;;;;27.52;17.17;;;13.80;77.00;;;;;;5061450;28;20486;-75
2022/03/01 21:53:56;;;;;;;30.25;17.60;;;13.80;76.80;;;;;;5061177;28;20067;-75
2022/03/01 21:56:22;;;;;;;30.35;17.95;;;13.70;76.60;;;;;;5061982;28;20122;-75
2022/03/01 21:58:51;;;;;;;24.20;18.00;;;13.70;76.80;;;;;;5060799;28;20025;-75
2022/03/01 22:01:17;;;;;;;27.90;17.52;;;13.70;76.60;;;;;;5061951;28;20120;-76
2022/03/01 22:03:43;;;;;;;23.88;17.75;;;13.60;76.50;;;;;;5062053;28;20039;-76
2022/03/01 22:06:10;;;;;;;30.65;17.67;;;13.70;76.40;;;;;;5065439;28;20474;-76
2022/03/01 22:08:37;;;;;;;22.90;16.25;;;13.60;76.60;;;;;;5060879;28;20047;-76
2022/03/01 22:11:03;;;;;;;25.90;16.80;;;13.60;76.50;;;;;;5063907;28;20016;-76
2022/03/01 22:13:29;;;;;;;25.50;16.27;;;13.50;76.50;;;;;;5057801;28;20090;-76
2022/03/01 22:15:55;;;;;;;22.38;15.00;;;13.50;76.60;;;;;;5064862;28;20044;-75
2022/03/01 22:18:21;;;;;;;29.05;18.92;;;13.50;76.70;;;;;;5066531;28;20383;-75
2022/03/01 22:20:47;;;;;;;27.38;17.85;;;13.40;76.70;;;;;;5080011;28;20138;-75
2022/03/01 22:23:13;;;;;;;25.88;16.40;;;13.50;76.60;;;;;;5074452;28;20093;-75
2022/03/01 22:25:40;;;;;;;24.27;17.58;;;13.40;76.40;;;;;;5072083;28;20020;-75
2022/03/01 22:28:06;;;;;;;22.13;15.70;;;13.40;75.80;;;;;;5059582;28;20082;-75
2022/03/01 22:30:32;;;;;;;22.55;14.77;;;13.30;75.70;;;;;;5053153;28;20025;-75
2022/03/01 22:32:58;;;;;;;20.58;13.73;;;13.30;75.70;;;;;;5074031;28;20028;-75
2022/03/01 22:35:24;;;;;;;18.15;14.10;;;13.30;75.30;;;;;;5063766;28;20036;-76
2022/03/01 22:37:49;;;;;;;19.85;13.40;;;13.30;75.40;;;;;;5054675;28;20100;-76
2022/03/01 22:40:17;;;;;;;16.23;12.57;;;13.30;74.90;;;;;;5049588;28;20071;-75
2022/03/01 22:42:44;;;;;;;19.25;13.00;;;13.30;74.90;;;;;;5073243;28;20017;-75
2022/03/01 22:45:11;;;;;;;23.65;14.98;;;13.30;74.50;;;;;;5074359;28;20028;-75
2022/03/01 22:47:44;;;;;;;19.38;13.95;;;13.30;73.70;;;;;;5074728;28;20029;-75
2022/03/01 22:50:12;;;;;;;16.40;11.50;;;13.20;73.70;;;;;;5067001;28;20071;-75
2022/03/01 22:52:38;;;;;;;18.98;11.32;;;13.20;73.20;;;;;;5054757;28;20072;-75
2022/03/01 22:55:08;;;;;;;23.05;11.35;;;13.20;73.20;;;;;;5036285;28;20033;-75
2022/03/01 22:57:35;;;;;;;13.13;10.75;;;13.20;72.80;;;;;;5054545;28;20101;-76
2022/03/01 23:00:01;;;;;;;17.25;11.43;;;13.10;72.70;;;;;;5036041;28;20116;-76
2022/03/01 23:02:26;;;;;;;18.05;11.48;;;13.10;72.60;;;;;;5038508;28;20033;-75
2022/03/01 23:04:52;;;;;;;15.05;10.10;;;13.10;72.60;;;;;;5058019;28;20021;-76
2022/03/01 23:07:26;;;;;;;13.73;10.75;;;13.20;72.20;;;;;;5040222;28;20048;-76
2022/03/01 23:09:53;;;;;;;14.38;10.10;;;13.20;71.90;;;;;;5039809;28;20033;-76
2022/03/01 23:12:18;;;;;;;16.65;9.80;;;13.10;71.60;;;;;;5058064;28;20029;-76
2022/03/01 23:14:44;;;;;;;15.73;9.88;;;13.10;71.70;;;;;;5055904;28;20514;-76
2022/03/01 23:17:10;;;;;;;13.30;9.88;;;13.10;71.40;;;;;;5057616;28;20017;-75
2022/03/01 23:19:36;;;;;;;13.13;9.57;;;13.10;71.30;;;;;;5084570;28;20499;-75
2022/03/01 23:22:01;;;;;;;14.07;9.57;;;13.10;71.10;;;;;;5074859;28;20458;-76
2022/03/01 23:24:27;;;;;;;13.32;9.45;;;13.10;70.80;;;;;;5059686;28;20032;-75
2022/03/01 23:26:53;;;;;;;15.52;9.85;;;13.00;71.00;;;;;;5072023;28;20025;-75
2022/03/01 23:29:19;;;;;;;14.35;9.43;;;13.10;71.20;;;;;;5057708;28;20024;-75
2022/03/01 23:31:44;;;;;;;12.40;8.82;;;13.00;71.00;;;;;;5066674;28;20110;-75
2022/03/01 23:34:14;;;;;;;15.95;9.18;;;13.00;71.00;;;;;;5046681;28;20048;-76
2022/03/01 23:36:39;;;;;;;11.65;9.25;;;13.10;71.20;;;;;;5039307;28;20096;-76
2022/03/01 23:39:05;;;;;;;13.10;8.35;;;13.10;71.00;;;;;;5057230;28;20534;-75
2022/03/01 23:41:31;;;;;;;13.60;8.73;;;13.10;71.00;;;;;;5057060;28;20025;-76
2022/03/01 23:43:57;;;;;;;12.70;8.32;;;12.90;70.70;;;;;;5057714;28;20419;-75
2022/03/01 23:46:23;;;;;;;12.93;8.52;;;13.00;71.00;;;;;;5039295;28;20037;-76
2022/03/01 23:48:49;;;;;;;13.70;8.65;;;13.10;71.40;;;;;;5057406;28;20029;-76
2022/03/01 23:51:15;;;;;;;10.88;8.07;;;13.00;70.80;;;;;;5039008;28;20032;-76
2022/03/01 23:53:41;;;;;;;10.30;7.55;;;13.00;70.80;;;;;;5039333;28;20120;-76
2022/03/01 23:56:07;;;;;;;10.30;7.70;;;13.00;71.00;;;;;;5056818;28;20094;-75
2022/03/01 23:58:34;;;;;;;10.35;7.15;;;13.00;70.70;;;;;;5038979;28;20182;-75
